sensor_id;sensor_type;location;lat;lon;timestamp;P1;durP1;ratioP1;P2;durP2;ratioP2
14554;SDS011;7364;50.870;4.722;2022-12-18T00:01:14;51.70;;;27.07;;
14554;SDS011;7364;50.870;4.722;2022-12-18T00:03:44;49.23;;;28.30;;
14554;SDS011;7364;50.870;4.722;2022-12-18T00:06:11;47.43;;;27.10;;
14554;SDS011;7364;50.870;4.722;2022-12-18T00:08:39;46.10;;;28.07;;
14554;SDS011;7364;50.870;4.722;2022-12-18T00:11:07;49.20;;;28.10;;
14554;SDS011;7364;50.870;4.722;2022-12-18T00:13:35;52.77;;;28.23;;
14554;SDS011;7364;50.870;4.722;2022-12-18T00:16:03;51.80;;;28.67;;
14554;SDS011;7364;50.870;4.722;2022-12-18T00:18:31;46.43;;;27.03;;
14554;SDS011;7364;50.870;4.722;2022-12-18T00:21:00;44.33;;;26.50;;
14554;SDS011;7364;50.870;4.722;2022-12-18T00:23:29;48.87;;;28.17;;
14554;SDS011;7364;50.870;4.722;2022-12-18T00:25:58;44.50;;;27.23;;
14554;SDS011;7364;50.870;4.722;2022-12-18T00:28:26;50.97;;;28.37;;
14554;SDS011;7364;50.870;4.722;2022-12-18T00:30:59;49.90;;;29.73;;
14554;SDS011;7364;50.870;4.722;2022-12-18T00:33:28;45.07;;;27.70;;
14554;SDS011;7364;50.870;4.722;2022-12-18T00:36:01;50.43;;;29.07;;
14554;SDS011;7364;50.870;4.722;2022-12-18T00:38:28;51.77;;;28.07;;
14554;SDS011;7364;50.870;4.722;2022-12-18T00:40:56;49.97;;;29.37;;
14554;SDS011;7364;50.870;4.722;2022-12-18T00:43:23;45.23;;;28.07;;
14554;SDS011;7364;50.870;4.722;2022-12-18T00:45:49;48.77;;;29.00;;
14554;SDS011;7364;50.870;4.722;2022-12-18T00:48:16;49.47;;;29.87;;
14554;SDS011;7364;50.870;4.722;2022-12-18T00:50:43;47.77;;;29.43;;
14554;SDS011;7364;50.870;4.722;2022-12-18T00:53:12;52.97;;;30.10;;
14554;SDS011;7364;50.870;4.722;2022-12-18T00:55:39;40.97;;;27.57;;
14554;SDS011;7364;50.870;4.722;2022-12-18T00:58:07;48.80;;;28.97;;
14554;SDS011;7364;50.870;4.722;2022-12-18T01:00:35;49.57;;;28.03;;
14554;SDS011;7364;50.870;4.722;2022-12-18T01:03:03;48.63;;;29.27;;
14554;SDS011;7364;50.870;4.722;2022-12-18T01:05:30;51.43;;;28.50;;
14554;SDS011;7364;50.870;4.722;2022-12-18T01:07:58;57.23;;;29.43;;
14554;SDS011;7364;50.870;4.722;2022-12-18T01:10:27;46.07;;;28.40;;
14554;SDS011;7364;50.870;4.722;2022-12-18T01:12:54;61.00;;;32.33;;
14554;SDS011;7364;50.870;4.722;2022-12-18T01:15:22;49.60;;;28.43;;
14554;SDS011;7364;50.870;4.722;2022-12-18T01:17:51;45.43;;;28.90;;
14554;SDS011;7364;50.870;4.722;2022-12-18T01:20:18;56.13;;;30.20;;
14554;SDS011;7364;50.870;4.722;2022-12-18T01:22:46;48.97;;;28.83;;
14554;SDS011;7364;50.870;4.722;2022-12-18T01:25:13;48.87;;;28.70;;
14554;SDS011;7364;50.870;4.722;2022-12-18T01:27:41;56.33;;;27.77;;
14554;SDS011;7364;50.870;4.722;2022-12-18T01:30:09;52.90;;;29.77;;
14554;SDS011;7364;50.870;4.722;2022-12-18T01:32:37;50.53;;;26.67;;
14554;SDS011;7364;50.870;4.722;2022-12-18T01:35:04;45.20;;;26.53;;
14554;SDS011;7364;50.870;4.722;2022-12-18T01:37:33;51.73;;;27.50;;
14554;SDS011;7364;50.870;4.722;2022-12-18T01:40:00;46.63;;;27.20;;
14554;SDS011;7364;50.870;4.722;2022-12-18T01:42:27;46.63;;;26.03;;
14554;SDS011;7364;50.870;4.722;2022-12-18T01:44:57;48.83;;;30.57;;
14554;SDS011;7364;50.870;4.722;2022-12-18T01:47:28;45.57;;;28.30;;
14554;SDS011;7364;50.870;4.722;2022-12-18T01:50:06;50.67;;;28.73;;
14554;SDS011;7364;50.870;4.722;2022-12-18T01:52:37;51.70;;;28.10;;
14554;SDS011;7364;50.870;4.722;2022-12-18T01:55:05;51.33;;;30.13;;
14554;SDS011;7364;50.870;4.722;2022-12-18T01:57:34;48.97;;;27.40;;
14554;SDS011;7364;50.870;4.722;2022-12-18T02:00:04;42.93;;;25.97;;
14554;SDS011;7364;50.870;4.722;2022-12-18T02:02:34;43.60;;;26.73;;
14554;SDS011;7364;50.870;4.722;2022-12-18T02:05:02;51.80;;;26.67;;
14554;SDS011;7364;50.870;4.722;2022-12-18T02:07:33;43.53;;;25.37;;
14554;SDS011;7364;50.870;4.722;2022-12-18T02:10:10;49.37;;;24.87;;
14554;SDS011;7364;50.870;4.722;2022-12-18T02:12:45;45.37;;;24.73;;
14554;SDS011;7364;50.870;4.722;2022-12-18T02:15:21;39.50;;;23.73;;
14554;SDS011;7364;50.870;4.722;2022-12-18T02:17:54;40.47;;;24.07;;
14554;SDS011;7364;50.870;4.722;2022-12-18T02:20:31;43.93;;;23.33;;
14554;SDS011;7364;50.870;4.722;2022-12-18T02:23:08;43.63;;;23.40;;
14554;SDS011;7364;50.870;4.722;2022-12-18T02:26:04;38.90;;;22.90;;
14554;SDS011;7364;50.870;4.722;2022-12-18T02:28:39;43.57;;;23.63;;
14554;SDS011;7364;50.870;4.722;2022-12-18T02:31:13;39.53;;;23.07;;
14554;SDS011;7364;50.870;4.722;2022-12-18T02:33:46;42.23;;;23.50;;
14554;SDS011;7364;50.870;4.722;2022-12-18T02:36:15;40.63;;;23.83;;
14554;SDS011;7364;50.870;4.722;2022-12-18T02:38:43;43.33;;;21.90;;
14554;SDS011;7364;50.870;4.722;2022-12-18T02:41:13;37.87;;;23.77;;
14554;SDS011;7364;50.870;4.722;2022-12-18T02:43:46;40.50;;;22.57;;
14554;SDS011;7364;50.870;4.722;2022-12-18T02:46:28;38.53;;;22.97;;
14554;SDS011;7364;50.870;4.722;2022-12-18T02:49:02;38.10;;;22.30;;
14554;SDS011;7364;50.870;4.722;2022-12-18T02:51:40;37.63;;;21.00;;
14554;SDS011;7364;50.870;4.722;2022-12-18T02:54:19;38.30;;;22.93;;
14554;SDS011;7364;50.870;4.722;2022-12-18T02:57:05;40.20;;;22.83;;
14554;SDS011;7364;50.870;4.722;2022-12-18T02:59:41;40.20;;;23.37;;
14554;SDS011;7364;50.870;4.722;2022-12-18T03:02:17;42.57;;;23.13;;
14554;SDS011;7364;50.870;4.722;2022-12-18T03:04:53;43.87;;;22.60;;
14554;SDS011;7364;50.870;4.722;2022-12-18T03:07:28;49.30;;;24.47;;
14554;SDS011;7364;50.870;4.722;2022-12-18T03:10:03;45.40;;;23.00;;
14554;SDS011;7364;50.870;4.722;2022-12-18T03:12:37;40.90;;;24.43;;
14554;SDS011;7364;50.870;4.722;2022-12-18T03:15:11;40.63;;;23.50;;
14554;SDS011;7364;50.870;4.722;2022-12-18T03:17:46;41.00;;;22.03;;
14554;SDS011;7364;50.870;4.722;2022-12-18T03:20:19;40.87;;;23.03;;
14554;SDS011;7364;50.870;4.722;2022-12-18T03:22:51;43.00;;;23.60;;
14554;SDS011;7364;50.870;4.722;2022-12-18T03:25:22;35.33;;;22.27;;
14554;SDS011;7364;50.870;4.722;2022-12-18T03:27:55;41.57;;;22.20;;
14554;SDS011;7364;50.870;4.722;2022-12-18T03:30:25;39.90;;;23.73;;
14554;SDS011;7364;50.870;4.722;2022-12-18T03:32:56;34.17;;;22.23;;
14554;SDS011;7364;50.870;4.722;2022-12-18T03:35:29;38.97;;;23.33;;
14554;SDS011;7364;50.870;4.722;2022-12-18T03:38:00;40.47;;;22.90;;
14554;SDS011;7364;50.870;4.722;2022-12-18T03:40:29;40.33;;;22.93;;
14554;SDS011;7364;50.870;4.722;2022-12-18T03:43:05;37.93;;;21.23;;
14554;SDS011;7364;50.870;4.722;2022-12-18T03:45:38;33.80;;;20.87;;
14554;SDS011;7364;50.870;4.722;2022-12-18T03:48:12;41.93;;;22.33;;
14554;SDS011;7364;50.870;4.722;2022-12-18T03:50:47;32.57;;;19.77;;
14554;SDS011;7364;50.870;4.722;2022-12-18T03:53:23;34.90;;;21.30;;
14554;SDS011;7364;50.870;4.722;2022-12-18T03:55:58;38.47;;;22.17;;
14554;SDS011;7364;50.870;4.722;2022-12-18T03:58:28;39.80;;;22.67;;
14554;SDS011;7364;50.870;4.722;2022-12-18T04:00:59;36.70;;;20.50;;
14554;SDS011;7364;50.870;4.722;2022-12-18T04:03:34;35.53;;;21.80;;
14554;SDS011;7364;50.870;4.722;2022-12-18T04:06:02;36.63;;;20.57;;
14554;SDS011;7364;50.870;4.722;2022-12-18T04:08:31;37.57;;;22.60;;
14554;SDS011;7364;50.870;4.722;2022-12-18T04:11:00;40.50;;;21.37;;
14554;SDS011;7364;50.870;4.722;2022-12-18T04:13:31;41.33;;;22.77;;
14554;SDS011;7364;50.870;4.722;2022-12-18T04:16:01;39.30;;;20.77;;
14554;SDS011;7364;50.870;4.722;2022-12-18T04:18:29;38.33;;;21.93;;
14554;SDS011;7364;50.870;4.722;2022-12-18T04:20:57;34.10;;;21.27;;
14554;SDS011;7364;50.870;4.722;2022-12-18T04:23:24;36.20;;;19.63;;
14554;SDS011;7364;50.870;4.722;2022-12-18T04:25:51;32.07;;;18.93;;
14554;SDS011;7364;50.870;4.722;2022-12-18T04:28:19;36.40;;;21.67;;
14554;SDS011;7364;50.870;4.722;2022-12-18T04:30:47;38.83;;;20.60;;
14554;SDS011;7364;50.870;4.722;2022-12-18T04:33:15;35.17;;;20.50;;
14554;SDS011;7364;50.870;4.722;2022-12-18T04:35:42;37.67;;;19.20;;
14554;SDS011;7364;50.870;4.722;2022-12-18T04:38:10;29.47;;;18.87;;
14554;SDS011;7364;50.870;4.722;2022-12-18T04:40:37;34.37;;;19.67;;
14554;SDS011;7364;50.870;4.722;2022-12-18T04:43:05;33.40;;;19.43;;
14554;SDS011;7364;50.870;4.722;2022-12-18T04:45:32;33.80;;;19.47;;
14554;SDS011;7364;50.870;4.722;2022-12-18T04:48:02;36.37;;;19.60;;
14554;SDS011;7364;50.870;4.722;2022-12-18T04:50:30;30.50;;;18.80;;
14554;SDS011;7364;50.870;4.722;2022-12-18T04:52:57;32.67;;;18.80;;
14554;SDS011;7364;50.870;4.722;2022-12-18T04:55:25;42.20;;;22.17;;
14554;SDS011;7364;50.870;4.722;2022-12-18T04:57:52;37.47;;;20.73;;
14554;SDS011;7364;50.870;4.722;2022-12-18T05:00:20;35.63;;;21.33;;
14554;SDS011;7364;50.870;4.722;2022-12-18T05:02:48;36.97;;;19.53;;
14554;SDS011;7364;50.870;4.722;2022-12-18T05:05:17;36.20;;;20.93;;
14554;SDS011;7364;50.870;4.722;2022-12-18T05:07:45;40.03;;;22.33;;
14554;SDS011;7364;50.870;4.722;2022-12-18T05:10:12;32.83;;;19.67;;
14554;SDS011;7364;50.870;4.722;2022-12-18T05:12:39;33.93;;;19.00;;
14554;SDS011;7364;50.870;4.722;2022-12-18T05:15:20;33.43;;;19.77;;
14554;SDS011;7364;50.870;4.722;2022-12-18T05:17:47;32.00;;;19.73;;
14554;SDS011;7364;50.870;4.722;2022-12-18T05:20:16;35.63;;;18.53;;
14554;SDS011;7364;50.870;4.722;2022-12-18T05:22:44;30.57;;;19.53;;
14554;SDS011;7364;50.870;4.722;2022-12-18T05:25:11;31.73;;;18.60;;
14554;SDS011;7364;50.870;4.722;2022-12-18T05:27:38;31.13;;;17.93;;
14554;SDS011;7364;50.870;4.722;2022-12-18T05:30:06;27.33;;;18.03;;
14554;SDS011;7364;50.870;4.722;2022-12-18T05:32:35;30.23;;;18.13;;
14554;SDS011;7364;50.870;4.722;2022-12-18T05:35:03;31.83;;;18.80;;
14554;SDS011;7364;50.870;4.722;2022-12-18T05:37:32;29.47;;;18.17;;
14554;SDS011;7364;50.870;4.722;2022-12-18T05:40:00;28.37;;;19.23;;
14554;SDS011;7364;50.870;4.722;2022-12-18T05:42:27;32.00;;;20.03;;
14554;SDS011;7364;50.870;4.722;2022-12-18T05:44:54;31.60;;;18.20;;
14554;SDS011;7364;50.870;4.722;2022-12-18T05:47:22;27.27;;;17.70;;
14554;SDS011;7364;50.870;4.722;2022-12-18T05:49:49;32.00;;;17.53;;
14554;SDS011;7364;50.870;4.722;2022-12-18T05:52:17;25.37;;;17.30;;
14554;SDS011;7364;50.870;4.722;2022-12-18T05:54:45;31.13;;;18.90;;
14554;SDS011;7364;50.870;4.722;2022-12-18T05:57:13;29.30;;;18.57;;
14554;SDS011;7364;50.870;4.722;2022-12-18T05:59:40;28.17;;;17.70;;
14554;SDS011;7364;50.870;4.722;2022-12-18T06:02:07;28.73;;;17.73;;
14554;SDS011;7364;50.870;4.722;2022-12-18T06:04:36;31.33;;;17.97;;
14554;SDS011;7364;50.870;4.722;2022-12-18T06:07:03;28.47;;;18.70;;
14554;SDS011;7364;50.870;4.722;2022-12-18T06:09:30;33.43;;;18.10;;
14554;SDS011;7364;50.870;4.722;2022-12-18T06:11:59;34.13;;;18.40;;
14554;SDS011;7364;50.870;4.722;2022-12-18T06:14:27;31.87;;;18.43;;
14554;SDS011;7364;50.870;4.722;2022-12-18T06:16:54;33.97;;;18.53;;
14554;SDS011;7364;50.870;4.722;2022-12-18T06:19:21;30.80;;;18.13;;
14554;SDS011;7364;50.870;4.722;2022-12-18T06:21:49;29.07;;;17.33;;
14554;SDS011;7364;50.870;4.722;2022-12-18T06:24:16;28.87;;;17.53;;
14554;SDS011;7364;50.870;4.722;2022-12-18T06:26:43;30.10;;;17.50;;
14554;SDS011;7364;50.870;4.722;2022-12-18T06:29:12;24.33;;;17.17;;
14554;SDS011;7364;50.870;4.722;2022-12-18T06:31:40;31.13;;;17.57;;
14554;SDS011;7364;50.870;4.722;2022-12-18T06:34:07;29.03;;;18.70;;
14554;SDS011;7364;50.870;4.722;2022-12-18T06:36:35;29.40;;;16.87;;
14554;SDS011;7364;50.870;4.722;2022-12-18T06:39:02;35.47;;;17.83;;
14554;SDS011;7364;50.870;4.722;2022-12-18T06:41:29;30.40;;;18.60;;
14554;SDS011;7364;50.870;4.722;2022-12-18T06:43:57;32.37;;;19.10;;
14554;SDS011;7364;50.870;4.722;2022-12-18T06:46:26;33.80;;;19.00;;
14554;SDS011;7364;50.870;4.722;2022-12-18T06:48:53;38.90;;;18.80;;
14554;SDS011;7364;50.870;4.722;2022-12-18T06:51:23;35.77;;;19.33;;
14554;SDS011;7364;50.870;4.722;2022-12-18T06:53:51;32.77;;;18.30;;
14554;SDS011;7364;50.870;4.722;2022-12-18T06:56:18;35.57;;;19.87;;
14554;SDS011;7364;50.870;4.722;2022-12-18T06:58:45;33.03;;;17.93;;
14554;SDS011;7364;50.870;4.722;2022-12-18T07:01:13;36.27;;;18.17;;
14554;SDS011;7364;50.870;4.722;2022-12-18T07:03:42;32.53;;;18.77;;
14554;SDS011;7364;50.870;4.722;2022-12-18T07:06:12;31.00;;;17.13;;
14554;SDS011;7364;50.870;4.722;2022-12-18T07:08:41;29.77;;;17.90;;
14554;SDS011;7364;50.870;4.722;2022-12-18T07:11:08;31.50;;;18.73;;
14554;SDS011;7364;50.870;4.722;2022-12-18T07:13:35;29.97;;;17.60;;
14554;SDS011;7364;50.870;4.722;2022-12-18T07:16:04;33.17;;;17.87;;
14554;SDS011;7364;50.870;4.722;2022-12-18T07:18:33;30.73;;;17.87;;
14554;SDS011;7364;50.870;4.722;2022-12-18T07:21:03;26.27;;;15.77;;
14554;SDS011;7364;50.870;4.722;2022-12-18T07:23:32;30.13;;;18.63;;
14554;SDS011;7364;50.870;4.722;2022-12-18T07:26:01;28.17;;;18.17;;
14554;SDS011;7364;50.870;4.722;2022-12-18T07:28:29;31.37;;;17.97;;
14554;SDS011;7364;50.870;4.722;2022-12-18T07:30:57;31.83;;;18.43;;
14554;SDS011;7364;50.870;4.722;2022-12-18T07:33:25;33.67;;;19.37;;
14554;SDS011;7364;50.870;4.722;2022-12-18T07:35:52;27.23;;;18.57;;
14554;SDS011;7364;50.870;4.722;2022-12-18T07:38:21;28.13;;;17.63;;
14554;SDS011;7364;50.870;4.722;2022-12-18T07:40:48;31.37;;;19.43;;
14554;SDS011;7364;50.870;4.722;2022-12-18T07:43:15;27.40;;;18.20;;
14554;SDS011;7364;50.870;4.722;2022-12-18T07:45:43;31.03;;;18.77;;
14554;SDS011;7364;50.870;4.722;2022-12-18T07:48:10;30.20;;;17.10;;
14554;SDS011;7364;50.870;4.722;2022-12-18T07:50:38;32.40;;;17.50;;
14554;SDS011;7364;50.870;4.722;2022-12-18T07:53:05;30.10;;;17.83;;
14554;SDS011;7364;50.870;4.722;2022-12-18T07:55:33;30.97;;;19.37;;
14554;SDS011;7364;50.870;4.722;2022-12-18T07:58:01;31.60;;;18.73;;
14554;SDS011;7364;50.870;4.722;2022-12-18T08:00:30;29.03;;;16.90;;
14554;SDS011;7364;50.870;4.722;2022-12-18T08:02:57;32.53;;;18.87;;
14554;SDS011;7364;50.870;4.722;2022-12-18T08:05:24;33.87;;;18.80;;
14554;SDS011;7364;50.870;4.722;2022-12-18T08:07:52;31.40;;;18.53;;
14554;SDS011;7364;50.870;4.722;2022-12-18T08:10:21;35.80;;;19.13;;
14554;SDS011;7364;50.870;4.722;2022-12-18T08:12:50;33.20;;;19.17;;
14554;SDS011;7364;50.870;4.722;2022-12-18T08:15:18;34.73;;;18.70;;
14554;SDS011;7364;50.870;4.722;2022-12-18T08:17:47;34.63;;;19.77;;
14554;SDS011;7364;50.870;4.722;2022-12-18T08:20:14;32.63;;;18.00;;
14554;SDS011;7364;50.870;4.722;2022-12-18T08:22:43;29.40;;;17.73;;
14554;SDS011;7364;50.870;4.722;2022-12-18T08:25:10;30.93;;;18.30;;
14554;SDS011;7364;50.870;4.722;2022-12-18T08:27:37;32.10;;;18.27;;
14554;SDS011;7364;50.870;4.722;2022-12-18T08:30:07;31.77;;;17.80;;
14554;SDS011;7364;50.870;4.722;2022-12-18T08:32:35;28.63;;;18.37;;
14554;SDS011;7364;50.870;4.722;2022-12-18T08:35:02;34.27;;;17.67;;
14554;SDS011;7364;50.870;4.722;2022-12-18T08:37:30;27.90;;;16.60;;
14554;SDS011;7364;50.870;4.722;2022-12-18T08:39:57;34.70;;;19.40;;
14554;SDS011;7364;50.870;4.722;2022-12-18T08:42:24;27.30;;;16.83;;
14554;SDS011;7364;50.870;4.722;2022-12-18T08:45:10;31.07;;;17.07;;
14554;SDS011;7364;50.870;4.722;2022-12-18T08:47:37;27.03;;;16.00;;
14554;SDS011;7364;50.870;4.722;2022-12-18T08:50:05;29.63;;;16.37;;
14554;SDS011;7364;50.870;4.722;2022-12-18T08:52:32;31.57;;;16.97;;
14554;SDS011;7364;50.870;4.722;2022-12-18T08:54:59;32.10;;;16.83;;
14554;SDS011;7364;50.870;4.722;2022-12-18T08:57:26;25.70;;;15.33;;
14554;SDS011;7364;50.870;4.722;2022-12-18T08:59:53;23.93;;;16.07;;
14554;SDS011;7364;50.870;4.722;2022-12-18T09:02:22;28.03;;;16.63;;
14554;SDS011;7364;50.870;4.722;2022-12-18T09:04:49;29.17;;;21.03;;
14554;SDS011;7364;50.870;4.722;2022-12-18T09:07:17;24.33;;;16.47;;
14554;SDS011;7364;50.870;4.722;2022-12-18T09:09:44;29.50;;;16.33;;
14554;SDS011;7364;50.870;4.722;2022-12-18T09:12:11;30.20;;;15.50;;
14554;SDS011;7364;50.870;4.722;2022-12-18T09:14:38;23.37;;;14.53;;
14554;SDS011;7364;50.870;4.722;2022-12-18T09:17:05;27.87;;;15.17;;
14554;SDS011;7364;50.870;4.722;2022-12-18T09:19:34;23.53;;;13.77;;
14554;SDS011;7364;50.870;4.722;2022-12-18T09:22:01;21.13;;;14.07;;
14554;SDS011;7364;50.870;4.722;2022-12-18T09:24:28;23.97;;;14.47;;
14554;SDS011;7364;50.870;4.722;2022-12-18T09:26:55;19.67;;;13.97;;
14554;SDS011;7364;50.870;4.722;2022-12-18T09:29:23;21.17;;;13.50;;
14554;SDS011;7364;50.870;4.722;2022-12-18T09:31:50;23.10;;;14.30;;
14554;SDS011;7364;50.870;4.722;2022-12-18T09:34:17;24.83;;;15.13;;
14554;SDS011;7364;50.870;4.722;2022-12-18T09:36:47;21.53;;;13.27;;
14554;SDS011;7364;50.870;4.722;2022-12-18T09:39:14;21.37;;;13.73;;
14554;SDS011;7364;50.870;4.722;2022-12-18T09:41:43;21.03;;;13.87;;
14554;SDS011;7364;50.870;4.722;2022-12-18T09:44:20;22.33;;;14.97;;
14554;SDS011;7364;50.870;4.722;2022-12-18T09:46:54;22.93;;;12.83;;
14554;SDS011;7364;50.870;4.722;2022-12-18T09:49:29;20.03;;;13.20;;
14554;SDS011;7364;50.870;4.722;2022-12-18T09:52:03;22.50;;;13.77;;
14554;SDS011;7364;50.870;4.722;2022-12-18T09:54:36;25.87;;;14.63;;
14554;SDS011;7364;50.870;4.722;2022-12-18T09:57:05;21.23;;;13.10;;
14554;SDS011;7364;50.870;4.722;2022-12-18T09:59:37;22.53;;;13.63;;
14554;SDS011;7364;50.870;4.722;2022-12-18T10:02:12;22.63;;;13.40;;
14554;SDS011;7364;50.870;4.722;2022-12-18T10:04:41;20.73;;;13.53;;
14554;SDS011;7364;50.870;4.722;2022-12-18T10:07:15;21.23;;;13.37;;
14554;SDS011;7364;50.870;4.722;2022-12-18T10:09:50;22.10;;;12.70;;
14554;SDS011;7364;50.870;4.722;2022-12-18T10:12:29;21.57;;;14.60;;
14554;SDS011;7364;50.870;4.722;2022-12-18T10:15:06;18.00;;;12.70;;
14554;SDS011;7364;50.870;4.722;2022-12-18T10:17:42;19.97;;;12.50;;
14554;SDS011;7364;50.870;4.722;2022-12-18T10:20:16;19.27;;;11.80;;
14554;SDS011;7364;50.870;4.722;2022-12-18T10:23:07;19.47;;;12.93;;
14554;SDS011;7364;50.870;4.722;2022-12-18T10:25:45;21.93;;;12.67;;
14554;SDS011;7364;50.870;4.722;2022-12-18T10:28:20;17.83;;;13.27;;
14554;SDS011;7364;50.870;4.722;2022-12-18T10:30:49;18.77;;;12.13;;
14554;SDS011;7364;50.870;4.722;2022-12-18T10:33:18;18.80;;;13.30;;
14554;SDS011;7364;50.870;4.722;2022-12-18T10:35:48;17.43;;;12.90;;
14554;SDS011;7364;50.870;4.722;2022-12-18T10:38:22;16.90;;;11.93;;
14554;SDS011;7364;50.870;4.722;2022-12-18T10:40:52;19.00;;;12.37;;
14554;SDS011;7364;50.870;4.722;2022-12-18T10:43:21;20.47;;;13.03;;
14554;SDS011;7364;50.870;4.722;2022-12-18T10:46:01;16.67;;;12.20;;
14554;SDS011;7364;50.870;4.722;2022-12-18T10:48:40;19.90;;;13.27;;
14554;SDS011;7364;50.870;4.722;2022-12-18T10:51:20;22.17;;;12.47;;
14554;SDS011;7364;50.870;4.722;2022-12-18T10:53:55;17.53;;;11.93;;
14554;SDS011;7364;50.870;4.722;2022-12-18T10:56:26;21.80;;;13.20;;
14554;SDS011;7364;50.870;4.722;2022-12-18T10:58:56;20.53;;;13.37;;
14554;SDS011;7364;50.870;4.722;2022-12-18T11:01:26;20.93;;;11.93;;
14554;SDS011;7364;50.870;4.722;2022-12-18T11:04:08;19.40;;;12.43;;
14554;SDS011;7364;50.870;4.722;2022-12-18T11:06:35;20.20;;;12.70;;
14554;SDS011;7364;50.870;4.722;2022-12-18T11:09:22;19.13;;;12.27;;
14554;SDS011;7364;50.870;4.722;2022-12-18T11:11:51;17.17;;;12.43;;
14554;SDS011;7364;50.870;4.722;2022-12-18T11:14:21;17.37;;;12.27;;
14554;SDS011;7364;50.870;4.722;2022-12-18T11:16:52;19.80;;;12.20;;
14554;SDS011;7364;50.870;4.722;2022-12-18T11:19:28;18.40;;;12.77;;
14554;SDS011;7364;50.870;4.722;2022-12-18T11:21:59;18.43;;;12.00;;
14554;SDS011;7364;50.870;4.722;2022-12-18T11:24:31;22.53;;;12.70;;
14554;SDS011;7364;50.870;4.722;2022-12-18T11:27:00;17.63;;;13.03;;
14554;SDS011;7364;50.870;4.722;2022-12-18T11:29:31;17.53;;;13.13;;
14554;SDS011;7364;50.870;4.722;2022-12-18T11:34:57;22.20;;;14.40;;
14554;SDS011;7364;50.870;4.722;2022-12-18T11:37:39;22.33;;;13.37;;
14554;SDS011;7364;50.870;4.722;2022-12-18T11:40:11;19.17;;;12.67;;
14554;SDS011;7364;50.870;4.722;2022-12-18T11:42:45;18.20;;;12.93;;
14554;SDS011;7364;50.870;4.722;2022-12-18T11:45:27;20.73;;;13.30;;
14554;SDS011;7364;50.870;4.722;2022-12-18T11:48:00;19.33;;;14.17;;
14554;SDS011;7364;50.870;4.722;2022-12-18T11:50:33;21.33;;;13.97;;
14554;SDS011;7364;50.870;4.722;2022-12-18T11:53:10;16.30;;;12.67;;
14554;SDS011;7364;50.870;4.722;2022-12-18T11:55:41;23.80;;;14.73;;
14554;SDS011;7364;50.870;4.722;2022-12-18T11:58:19;18.60;;;14.37;;
14554;SDS011;7364;50.870;4.722;2022-12-18T12:00:58;18.13;;;13.60;;
14554;SDS011;7364;50.870;4.722;2022-12-18T12:03:39;23.07;;;14.77;;
14554;SDS011;7364;50.870;4.722;2022-12-18T12:06:19;20.03;;;14.80;;
14554;SDS011;7364;50.870;4.722;2022-12-18T12:08:55;20.23;;;14.63;;
14554;SDS011;7364;50.870;4.722;2022-12-18T12:11:33;24.17;;;14.47;;
14554;SDS011;7364;50.870;4.722;2022-12-18T12:14:13;21.63;;;14.30;;
14554;SDS011;7364;50.870;4.722;2022-12-18T12:16:58;21.03;;;14.13;;
14554;SDS011;7364;50.870;4.722;2022-12-18T12:19:38;18.67;;;13.23;;
14554;SDS011;7364;50.870;4.722;2022-12-18T12:22:15;18.50;;;13.43;;
14554;SDS011;7364;50.870;4.722;2022-12-18T12:24:54;21.53;;;14.50;;
14554;SDS011;7364;50.870;4.722;2022-12-18T12:27:41;23.23;;;15.13;;
14554;SDS011;7364;50.870;4.722;2022-12-18T12:30:20;17.17;;;13.23;;
14554;SDS011;7364;50.870;4.722;2022-12-18T12:32:55;21.20;;;14.23;;
14554;SDS011;7364;50.870;4.722;2022-12-18T12:35:41;19.43;;;14.13;;
14554;SDS011;7364;50.870;4.722;2022-12-18T12:38:13;21.77;;;14.33;;
14554;SDS011;7364;50.870;4.722;2022-12-18T12:40:46;21.87;;;14.90;;
14554;SDS011;7364;50.870;4.722;2022-12-18T12:43:24;20.10;;;15.10;;
14554;SDS011;7364;50.870;4.722;2022-12-18T12:45:55;22.57;;;15.67;;
14554;SDS011;7364;50.870;4.722;2022-12-18T12:48:31;23.37;;;16.37;;
14554;SDS011;7364;50.870;4.722;2022-12-18T12:51:03;25.33;;;16.97;;
14554;SDS011;7364;50.870;4.722;2022-12-18T12:53:37;22.03;;;16.27;;
14554;SDS011;7364;50.870;4.722;2022-12-18T12:56:06;21.30;;;15.00;;
14554;SDS011;7364;50.870;4.722;2022-12-18T12:58:41;21.07;;;16.60;;
14554;SDS011;7364;50.870;4.722;2022-12-18T13:01:17;25.67;;;16.00;;
14554;SDS011;7364;50.870;4.722;2022-12-18T13:03:56;33.83;;;21.73;;
14554;SDS011;7364;50.870;4.722;2022-12-18T13:06:35;41.17;;;28.57;;
14554;SDS011;7364;50.870;4.722;2022-12-18T13:09:09;40.17;;;24.90;;
14554;SDS011;7364;50.870;4.722;2022-12-18T13:11:37;23.83;;;16.13;;
14554;SDS011;7364;50.870;4.722;2022-12-18T13:14:26;22.33;;;13.13;;
14554;SDS011;7364;50.870;4.722;2022-12-18T13:19:42;20.47;;;13.50;;
14554;SDS011;7364;50.870;4.722;2022-12-18T13:22:20;21.60;;;14.43;;
14554;SDS011;7364;50.870;4.722;2022-12-18T13:24:50;23.83;;;13.93;;
14554;SDS011;7364;50.870;4.722;2022-12-18T13:33:37;19.60;;;13.27;;
14554;SDS011;7364;50.870;4.722;2022-12-18T13:36:10;21.73;;;13.37;;
14554;SDS011;7364;50.870;4.722;2022-12-18T13:38:41;25.23;;;15.10;;
14554;SDS011;7364;50.870;4.722;2022-12-18T13:43:56;25.53;;;15.93;;
14554;SDS011;7364;50.870;4.722;2022-12-18T13:46:43;20.37;;;16.47;;
14554;SDS011;7364;50.870;4.722;2022-12-18T13:49:18;21.57;;;14.47;;
14554;SDS011;7364;50.870;4.722;2022-12-18T13:51:50;16.10;;;12.73;;
14554;SDS011;7364;50.870;4.722;2022-12-18T13:54:20;20.50;;;14.60;;
14554;SDS011;7364;50.870;4.722;2022-12-18T13:56:51;23.43;;;15.00;;
14554;SDS011;7364;50.870;4.722;2022-12-18T13:59:19;19.97;;;13.83;;
14554;SDS011;7364;50.870;4.722;2022-12-18T14:01:50;20.00;;;13.27;;
14554;SDS011;7364;50.870;4.722;2022-12-18T14:04:21;19.17;;;13.70;;
14554;SDS011;7364;50.870;4.722;2022-12-18T14:06:52;23.80;;;14.13;;
14554;SDS011;7364;50.870;4.722;2022-12-18T14:09:23;20.17;;;15.20;;
14554;SDS011;7364;50.870;4.722;2022-12-18T14:11:53;22.70;;;15.13;;
14554;SDS011;7364;50.870;4.722;2022-12-18T14:14:43;21.43;;;13.63;;
14554;SDS011;7364;50.870;4.722;2022-12-18T14:17:13;23.23;;;14.77;;
14554;SDS011;7364;50.870;4.722;2022-12-18T14:19:42;23.13;;;13.47;;
14554;SDS011;7364;50.870;4.722;2022-12-18T14:22:15;28.50;;;15.10;;
14554;SDS011;7364;50.870;4.722;2022-12-18T14:24:44;17.63;;;13.17;;
14554;SDS011;7364;50.870;4.722;2022-12-18T14:27:12;18.73;;;13.47;;
14554;SDS011;7364;50.870;4.722;2022-12-18T14:29:46;22.63;;;14.40;;
14554;SDS011;7364;50.870;4.722;2022-12-18T14:32:16;23.53;;;14.50;;
14554;SDS011;7364;50.870;4.722;2022-12-18T14:34:45;22.70;;;14.90;;
14554;SDS011;7364;50.870;4.722;2022-12-18T14:37:14;22.90;;;15.53;;
14554;SDS011;7364;50.870;4.722;2022-12-18T14:39:56;22.43;;;15.53;;
14554;SDS011;7364;50.870;4.722;2022-12-18T14:42:25;29.53;;;17.00;;
14554;SDS011;7364;50.870;4.722;2022-12-18T14:47:55;25.97;;;15.90;;
14554;SDS011;7364;50.870;4.722;2022-12-18T14:50:27;29.73;;;18.07;;
14554;SDS011;7364;50.870;4.722;2022-12-18T14:52:54;24.77;;;16.33;;
14554;SDS011;7364;50.870;4.722;2022-12-18T14:55:21;25.67;;;16.37;;
14554;SDS011;7364;50.870;4.722;2022-12-18T14:57:49;25.90;;;16.37;;
14554;SDS011;7364;50.870;4.722;2022-12-18T15:00:19;26.37;;;17.10;;
14554;SDS011;7364;50.870;4.722;2022-12-18T15:02:48;28.47;;;17.50;;
14554;SDS011;7364;50.870;4.722;2022-12-18T15:05:21;28.77;;;16.67;;
14554;SDS011;7364;50.870;4.722;2022-12-18T15:07:53;28.30;;;18.67;;
14554;SDS011;7364;50.870;4.722;2022-12-18T15:10:22;29.30;;;17.47;;
14554;SDS011;7364;50.870;4.722;2022-12-18T15:13:05;27.00;;;17.83;;